Main page
METAR-TAF:

METAR-TAF

Airports :

Bamako–Modibo Keïta International Airport

Bamako, Mali

latitude: 12-32N, longitude: 007-57W, elevation: 380 m

Current weather observation

The report was made 46 minutes ago, at 01:00 UTC
Wind 3 kt from the Northeast
Temperature 21°C
Humidity 43%
Pressure 1015 hPa
Visibility: 6000 m

METAR: GABS 220100Z 04003KT 6000 NSC 21/08 Q1015 TEMPO 3500 DU

Time: 01:46 (01:46 UTC)

Forecast

The report was made 2 hours and 46 minutes ago, at 23:00 UTC
Forecast valid from 22 at 00 UTC to 23 at 06 UTC
Wind 6 kt from the North/Northeast
Visibility: 6000 m
Probability 40% :
Temporary
from 22 at 06 UTC to 22 at 12 UTC
Visibility: 4000 m
widespread dust

TAF: GABS 212300Z 2200/2306 03006KT 6000 NSC PROB40 TEMPO 2206/2212 4000 DU

Weather observations and forecasts of more than 4000 airports (METAR and TAF reports).

The available stations are represented by yellow and red dots on the map.

Hover mouse over dot to see the name of the station.

Then click to see weather observations and forecasts.

To change the map : click on the green buttons with a black cross to zoom in, on the green button with a dash to zoom out, or on the green arrows for adjacent maps.


METAR-TAF: